Weather observations for the past three days for
Alma, Gratiot Community Airport
Imperial (Metric)
Date Time (edt) Wind (mph) Vis. (mi.) Weather Sky Cond. Temperature (ºF) Relative Humidity Wind Chill (°F) Heat Index (°F) Pressure Precipitation (in)
Air Dwpt 6 hour altimeter (in) sea level (mb) 1 hr 3 hr 6 hr
Max. Min.
04 10:15 S 13 10.00 Fair CLR 60.8 46.4 59% 29.6 0.0
04 09:55 SW 10 10.00 Fair CLR 59 46.4 63% 29.6 0.0
04 09:35 SW 15 G 18 10.00 Fair CLR 57.2 46.4 67% 29.61 0.0
04 09:15 SW 10 10.00 Fair CLR 55.4 44.6 67% 29.61 0.0
04 08:56 SW 13 6.00 Fair with Haze CLR 53.6 44.6 72% 29.61 0.0
04 08:35 SW 13 0.15 Sky Obscured with Haze VV000 51.8 44.6 77% 29.61 0.0
04 08:15 SW 12 10.00 Fair CLR 51.8 44.6 77% 29.61 0.0
04 07:55 S 12 10.00 Fair CLR 50 42.8 49.6 45.7 76% 46 29.61 0.0
04 07:35 SW 10 G 16 10.00 Fair CLR 48.2 42.8 82% 44 29.61 0.0
04 07:15 SW 9 10.00 Fair CLR 48.2 42.8 82% 45 29.61 0.0
04 06:55 SW 8 10.00 Fair CLR 46.4 42.8 87% 43 29.61 0.0
04 06:36 S 9 10.00 Fair CLR 46.4 41 82% 42 29.6 0.0
04 06:15 S 10 10.00 Fair CLR 46.4 41 82% 42 29.61 0.0
04 05:55 SW 8 10.00 Fair CLR 46.4 41 82% 43 29.61 0.0
04 05:35 SW 9 10.00 Fair CLR 46.4 41 82% 42 29.62 0.0
04 05:15 SW 7 10.00 Fair CLR 46.4 41 82% 43 29.62 0.0
04 04:55 SW 8 10.00 Fair CLR 46.4 42.8 87% 43 29.62 0.0
04 04:35 SW 8 10.00 Fair CLR 46.4 41 82% 43 29.62 0.0
04 04:16 SW 8 10.00 Fair CLR 48.2 42.8 82% 45 29.62 0.0
04 03:55 SW 8 10.00 Fair CLR 48.2 42.8 82% 45 29.63 0.0
04 03:35 SW 10 10.00 Fair CLR 48.2 41 76% 44 29.63 0.0
04 03:15 SW 10 10.00 Fair CLR 48.2 41 76% 44 29.64 0.0
04 02:55 SW 10 10.00 Fair CLR 48.2 41 76% 44 29.64 0.0
04 02:35 SW 12 10.00 Fair CLR 48.2 41 76% 44 29.65 0.0
04 02:15 S 10 10.00 Fair CLR 48.2 41 76% 44 29.66 0.0
04 01:56 SW 12 10.00 Fair CLR 48.2 41 76% 44 29.66 0.0
04 01:35 SW 12 10.00 Fair CLR 48.2 41 76% 44 29.67 0.0
04 01:15 SW 10 10.00 Fair CLR 50 41 71% 46 29.68 0.0
04 00:55 SW 10 10.00 Fair CLR 48.2 41 76% 44 29.69 0.0
04 00:35 SW 14 10.00 Fair CLR 48.2 41 76% 43 29.69 0.0
04 00:15 SW 10 10.00 Fair CLR 50 41 71% 46 29.69 0.0
03 23:55 S 13 10.00 Fair CLR 50 41 71% 46 29.69 0.0
03 23:36 S 14 G 20 10.00 Fair CLR 50 39.2 67% 45 29.7 0.0
03 23:15 S 13 G 18 10.00 Fair CLR 50 39.2 67% 46 29.7 0.0
03 22:55 SW 14 10.00 Fair CLR 50 39.2 67% 45 29.71 0.0
03 22:35 SW 13 10.00 Fair CLR 50 39.2 67% 46 29.71 0.0
03 22:15 SW 12 10.00 Fair CLR 50 39.2 67% 46 29.72 0.0
03 21:55 S 13 10.00 Fair CLR 50 39.2 67% 46 29.72 0.0
03 21:35 SW 12 10.00 A Few Clouds FEW065 51.8 39.2 62% 29.72 0.0
03 21:16 SW 13 10.00 Mostly Cloudy BKN065 51.8 39.2 62% 29.72 0.0
03 20:55 SW 12 G 18 10.00 Overcast OVC065 51.8 39.2 62% 29.72 0.0
03 20:35 SW 13 10.00 Mostly Cloudy BKN065 51.8 39.2 62% 29.72 0.0
03 20:15 SW 17 10.00 Fair CLR 53.6 39.2 58% 29.72 0.0
03 19:55 SW 16 G 26 10.00 Fair CLR 55.4 39.2 63 54.7 55% 29.72 0.0
03 19:35 SW 17 G 22 10.00 Fair CLR 55.4 39.2 55% 29.72 0.0
03 19:15 SW 15 G 25 10.00 Fair CLR 57.2 39.2 51% 29.73 0.0
03 18:56 SW 17 G 25 10.00 Fair CLR 57.2 41 55% 29.74 0.0
03 18:35 SW 23 G 29 10.00 A Few Clouds and Breezy FEW090 57.2 39.2 51% 29.74 0.0
03 18:15 SW 16 G 24 10.00 Overcast OVC090 59 39.2 48% 29.75 0.0
03 17:55 SW 22 G 30 10.00 Overcast and Breezy OVC080 57.2 39.2 51% 29.75 0.0
03 17:35 SW 18 G 25 10.00 Overcast SCT060 OVC080 55.4 37.4 51% 29.76 0.0
03 17:15 SW 15 G 25 10.00 Overcast BKN060 OVC070 55.4 37.4 51% 29.76 0.0
03 16:55 W 25 G 33 10.00 Overcast and Breezy BKN060 BKN075 OVC085 57.2 37.4 48% 29.77 0.0
03 16:36 W 24 G 35 10.00 Mostly Cloudy and Breezy FEW060 BKN080 60.8 39.2 45% 29.76 0.0
03 16:15 SW 24 G 38 10.00 Partly Cloudy and Breezy FEW060 SCT090 62.6 37.4 39% 29.75 0.0
03 15:55 SW 20 G 35 10.00 A Few Clouds FEW060 62.6 37.4 39% 29.76 0.0
03 15:35 SW 20 G 36 10.00 A Few Clouds FEW055 62.6 37.4 39% 29.76 0.0
03 15:15 W 22 G 31 10.00 Partly Cloudy and Breezy SCT055 62.6 37.4 39% 29.77 0.0
03 14:55 SW 20 G 29 10.00 Partly Cloudy SCT055 62.6 39.2 42% 29.78 0.0
03 14:35 SW 20 G 31 10.00 Mostly Cloudy SCT055 BKN070 62.6 39.2 42% 29.78 0.0
03 14:16 W 18 G 29 10.00 Overcast BKN055 OVC070 60.8 39.2 45% 29.79 0.0
03 13:55 W 22 G 33 10.00 Mostly Cloudy and Breezy BKN055 BKN070 60.8 39.2 61.9 44.1 45% 29.79 0.0
03 13:35 W 23 G 28 10.00 A Few Clouds and Breezy FEW055 60.8 39.2 45% 29.8 0.0
03 13:15 W 17 G 26 10.00 Fair CLR 60.8 39.2 45% 29.81 0.0
03 12:55 SW 21 G 28 10.00 Fair and Breezy CLR 59 37.4 45% 29.81 0.0
03 12:35 SW 20 G 26 10.00 A Few Clouds FEW120 59 35.6 42% 29.82 0.0
03 12:15 SW 16 G 23 10.00 Mostly Cloudy SCT085 BKN120 57.2 35.6 44% 29.83 0.0
03 11:56 W 14 G 25 10.00 Mostly Cloudy BKN085 BKN100 59 35.6 42% 29.84 0.0
03 11:35 W 15 G 24 10.00 A Few Clouds FEW095 FEW120 57.2 35.6 44% 29.84 0.0
03 11:15 W 14 G 18 10.00 Fair CLR 57.2 33.8 41% 29.84 0.0
03 10:55 SW 18 G 24 10.00 Partly Cloudy SCT080 55.4 33.8 44% 29.85 0.0
03 10:35 SW 15 G 22 10.00 Mostly Cloudy BKN080 BKN110 55.4 35.6 47% 29.85 0.0
03 10:15 SW 13 10.00 Mostly Cloudy BKN090 BKN110 51.8 33.8 50% 29.86 0.0
03 09:55 SW 10 G 16 10.00 Overcast OVC090 50 33.8 54% 46 29.86 0.0
03 09:36 SW 8 10.00 Overcast OVC080 48.2 33.8 58% 45 29.86 0.0
03 09:15 SW 13 10.00 Overcast BKN080 OVC110 48.2 32 54% 43 29.86 0.0
03 08:55 SW 12 10.00 Mostly Cloudy BKN100 BKN120 48.2 32 54% 44 29.86 0.0
03 08:35 SW 14 10.00 A Few Clouds FEW120 46.4 32 57% 41 29.87 0.0
03 08:15 SW 13 G 21 10.00 Fair CLR 44.6 32 61% 39 29.87 0.0
03 07:55 SW 10 10.00 Fair CLR 44.6 32 44.1 35.8 61% 40 29.87 0.0
03 07:35 SW 12 G 18 10.00 Fair CLR 42.8 30.2 61% 37 29.87 0.0
03 07:16 SW 10 10.00 Fair CLR 41 30.2 66% 35 29.86 0.0
03 06:55 SW 10 10.00 Fair CLR 41 28.4 61% 35 29.87 0.0
03 06:35 SW 9 10.00 Fair CLR 39.2 28.4 65% 34 29.87 0.0
03 06:15 SW 8 10.00 Fair CLR 39.2 26.6 61% 34 29.87 0.0
03 05:55 SW 8 10.00 Fair CLR 39.2 26.6 61% 34 29.87 0.0
03 05:35 SW 8 10.00 Fair CLR 39.2 26.6 61% 34 29.88 0.0
03 05:15 SW 8 10.00 Fair CLR 39.2 26.6 61% 34 29.89 0.0
03 04:56 SW 10 10.00 Fair CLR 39.2 26.6 61% 33 29.89 0.0
03 04:35 SW 8 10.00 Fair CLR 39.2 26.6 61% 34 29.9 0.0
03 04:15 SW 8 10.00 Fair CLR 37.4 26.6 65% 32 29.9 0.0
03 03:55 S 8 10.00 Fair CLR 37.4 24.8 60% 32 29.9 0.0
03 03:35 S 8 10.00 Fair CLR 37.4 24.8 60% 32 29.91 0.0
03 03:15 SW 7 10.00 Fair CLR 35.6 24.8 65% 31 29.91 0.0
03 02:55 SW 7 10.00 Fair CLR 37.4 24.8 60% 33 29.92 0.0
03 02:36 SW 7 10.00 Partly Cloudy SCT095 37.4 24.8 60% 33 29.93 0.0
03 02:15 SW 6 10.00 Mostly Cloudy BKN095 37.4 24.8 60% 33 29.94 0.0
03 01:55 SW 7 10.00 Overcast OVC085 39.2 24.8 49.8 38.5 56% 35 29.94 0.0
03 01:35 SW 5 10.00 Overcast OVC085 39.2 24.8 56% 36 29.95 0.0
03 01:15 SW 7 10.00 Partly Cloudy SCT085 39.2 24.8 56% 35 29.95 0.0
03 00:55 SW 7 10.00 Fair CLR 39.2 24.8 56% 35 29.96 0.0
03 00:35 SW 8 10.00 Fair CLR 39.2 24.8 56% 34 29.96 0.0
03 00:16 SW 8 10.00 Fair CLR 41 24.8 53% 36 29.96 0.0
02 23:55 W 6 10.00 Fair CLR 39.2 24.8 56% 36 29.97 0.0
02 23:35 W 8 10.00 Fair CLR 41 24.8 53% 36 29.97 0.0
02 23:15 SW 6 10.00 Fair CLR 41 23 49% 38 29.97 0.0
02 22:55 W 6 10.00 Fair CLR 39.2 26.6 61% 36 29.97 0.0
02 22:35 W 5 10.00 Fair CLR 41 26.6 57% 38 29.97 0.0
02 22:15 W 6 10.00 Fair CLR 42.8 24.8 49% 40 29.97 0.0
02 21:56 W 6 10.00 Fair CLR 42.8 23 46% 40 29.97 0.0
02 21:35 W 6 10.00 Fair CLR 42.8 23 46% 40 29.97 0.0
02 21:15 W 7 10.00 Fair CLR 41 24.8 53% 37 29.96 0.0
02 20:55 W 7 10.00 Fair CLR 42.8 23 46% 39 29.96 0.0
02 20:35 NW 8 10.00 Fair CLR 46.4 21.2 37% 43 29.96 0.0
02 20:15 W 9 10.00 A Few Clouds FEW085 48.2 21.2 34% 45 29.95 0.0
02 19:55 W 6 10.00 A Few Clouds FEW085 50 21.2 52.7 46.2 32% 48 29.95 0.0
02 19:36 W 7 10.00 A Few Clouds FEW075 50 23 35% 48 29.96 0.0
02 19:15 W 12 10.00 Mostly Cloudy BKN075 50 23 35% 46 29.96 0.0
02 18:55 SW 7 10.00 Partly Cloudy SCT085 50 23 35% 48 29.96 0.0
02 18:35 W 9 10.00 Mostly Cloudy BKN085 50 24.8 37% 47 29.97 0.0
02 18:15 W 8 10.00 Partly Cloudy SCT085 50 23 35% 47 29.97 0.0
02 17:55 W 8 10.00 Mostly Cloudy BKN085 50 24.8 37% 47 29.97 0.0
02 17:35 W 13 G 18 10.00 Mostly Cloudy SCT070 BKN085 51.8 23 32% 29.97 0.0
02 17:16 W 8 10.00 Mostly Cloudy BKN080 BKN090 50 24.8 37% 47 29.97 0.0
02 16:55 W 6 G 16 10.00 Mostly Cloudy FEW070 BKN080 50 24.8 37% 48 29.98 0.0
02 16:35 SW 12 10.00 Overcast OVC080 50 24.8 37% 46 29.98 0.0
02 16:15 W 9 10.00 Overcast BKN070 OVC080 50 24.8 37% 47 29.99 0.0
02 15:55 W 10 G 18 10.00 Overcast BKN070 OVC080 48.2 23 37% 44 30 0.0
02 15:35 W 9 10.00 Overcast SCT070 OVC080 50 24.8 37% 47 30.01 0.0
02 15:15 W 10 G 18 10.00 Overcast SCT070 OVC080 50 24.8 37% 46 30.01 0.0
02 14:56 NW 12 G 16 10.00 Mostly Cloudy SCT070 BKN080 51.8 24.8 35% 30.02 0.0
02 14:35 NW 9 10.00 Mostly Cloudy BKN075 48.2 24.8 40% 45 30.02 0.0
02 14:15 W 14 G 20 10.00 Mostly Cloudy BKN070 50 26.6 40% 45 30.03 0.0
02 13:55 W 12 10.00 Mostly Cloudy BKN070 46.4 23 49.1 33.8 40% 42 30.03 0.0
02 13:35 Vrbl 7 10.00 Mostly Cloudy BKN055 BKN070 48.2 24.8 40% 46 30.03 0.0
02 13:15 NW 12 10.00 Mostly Cloudy BKN055 46.4 21.2 37% 42 30.04 0.0
02 12:55 NW 12 10.00 Mostly Cloudy BKN055 46.4 23 40% 42 30.05 0.0
02 12:36 NW 9 10.00 Mostly Cloudy BKN055 44.6 23 43% 40 30.05 0.0
02 12:15 NW 7 10.00 Mostly Cloudy BKN055 44.6 23 43% 41 30.05 0.0
02 11:55 NW 15 G 20 10.00 Partly Cloudy SCT049 46.4 24.8 43% 41 30.06 0.0
02 11:35 W 10 G 18 10.00 Partly Cloudy SCT049 44.6 26.6 49% 40 30.06 0.0
02 11:15 NW 12 10.00 Mostly Cloudy BKN049 BKN055 42.8 24.8 49% 37 30.06 0.0
02 10:55 W 13 G 17 10.00 Mostly Cloudy SCT041 BKN049 42.8 26.6 53% 37 30.06 0.0
02 10:35 NW 13 10.00 Mostly Cloudy FEW038 BKN047 42.8 26.6 53% 37 30.07 0.0
02 10:16 NW 12 10.00 Overcast SCT036 OVC048 41 24.8 53% 35 30.07 0.0
02 09:55 NW 9 10.00 Partly Cloudy SCT036 41 26.6 57% 36 30.07 0.0
02 09:35 NW 9 10.00 Fair CLR 41 26.6 57% 36 30.07 0.0
02 09:15 N 10 10.00 Fair CLR 39.2 28.4 65% 33 30.07 0.0
02 08:55 NW 6 10.00 Fair CLR 39.2 30.2 70% 36 30.07 0.0
02 08:35 NW 7 10.00 Fair CLR 37.4 28.4 70% 33 30.08 0.0
02 08:15 NW 7 10.00 Fair CLR 35.6 28.4 75% 31 30.08 0.0
02 07:56 NW 5 10.00 Fair CLR 33.8 28.4 81% 30 30.08 0.0
02 07:35 NW 6 10.00 Fair CLR 32 28.4 87% 27 30.07 0.0
02 07:15 NW 6 10.00 Fair CLR 30.2 28.4 93% 25 30.07 0.0
02 06:55 NW 6 10.00 Fair CLR 28.4 24.8 86% 23 30.07 0.0
02 06:35 NW 5 10.00 Fair CLR 28.4 24.8 86% 24 30.06 0.0
02 06:15 NW 5 10.00 Fair CLR 30.2 26.6 86% 26 30.06 0.0
02 05:55 NW 6 10.00 Fair CLR 30.2 26.6 86% 25 30.06 0.0
02 05:36 NW 5 10.00 Fair CLR 30.2 26.6 86% 26 30.06 0.0
02 05:15 NW 6 10.00 Fair CLR 32 26.6 80% 27 30.05 0.0
02 04:55 NW 6 10.00 Fair CLR 30.2 26.6 86% 25 30.05 0.0
02 04:35 NW 5 10.00 Fair CLR 30.2 26.6 86% 26 30.05 0.0
02 04:15 W 5 10.00 Fair CLR 32 26.6 80% 28 30.05 0.0
02 03:55 NW 3 10.00 Partly Cloudy SCT085 33.8 26.6 75% 30.05 0.0
02 03:35 NW 5 10.00 Overcast OVC085 35.6 26.6 70% 32 30.04 0.0
02 03:16 NW 6 10.00 Overcast OVC085 35.6 26.6 70% 31 30.04 0.0
02 02:55 NW 5 10.00 Overcast OVC085 37.4 26.6 65% 34 30.05 0.0
02 02:35 NW 5 10.00 Overcast OVC085 37.4 26.6 65% 34 30.05 0.0
02 02:15 NW 5 10.00 Overcast OVC085 37.4 26.6 65% 34 30.05 0.0
02 01:55 N 6 10.00 Overcast OVC085 37.4 24.8 42.4 37.2 60% 33 30.05 0.0
02 01:35 N 5 10.00 Overcast OVC085 37.4 26.6 65% 34 30.05 0.0
02 01:15 N 7 10.00 Overcast OVC085 37.4 26.6 65% 33 30.05 0.0
02 00:56 NW 6 10.00 Overcast OVC085 37.4 26.6 65% 33 30.04 0.0
02 00:35 NW 6 10.00 Overcast OVC085 39.2 26.6 61% 36 30.04 0.0
02 00:15 NW 6 10.00 Overcast OVC085 39.2 24.8 56% 36 30.04 0.0
01 23:55 NW 5 10.00 Overcast OVC085 39.2 24.8 56% 36 30.04 0.0
01 23:35 NW 6 10.00 Overcast OVC085 39.2 24.8 56% 36 30.04 0.0
01 23:15 NW 6 10.00 Overcast OVC085 39.2 24.8 56% 36 30.03 0.0
01 22:55 NW 5 10.00 Overcast OVC085 39.2 24.8 56% 36 30.03 0.0
01 22:36 N 7 10.00 Overcast FEW048 FEW060 OVC085 41 24.8 53% 37 30.03 0.0
01 22:15 N 7 10.00 Overcast OVC085 41 24.8 53% 37 30.03 0.0
01 21:55 NW 7 10.00 Overcast OVC075 41 24.8 53% 37 30.03 0.0
01 21:35 NW 7 10.00 Overcast OVC075 41 24.8 53% 37 30.02 0.0
01 21:15 NW 6 10.00 Overcast OVC075 41 23 49% 38 30.02 0.0
01 20:55 N 7 10.00 Overcast FEW060 OVC075 41 23 49% 37 30.01 0.0
01 20:35 NW 12 10.00 Overcast BKN060 OVC070 41 24.8 53% 35 30.01 0.0
01 20:16 N 10 10.00 Overcast SCT060 OVC070 42.8 24.8 49% 38 30 0.0
01 19:55 N 10 10.00 Overcast BKN060 OVC070 42.8 24.8 46 42.4 49% 38 30 0.0
01 19:35 N 8 10.00 Overcast OVC060 42.8 24.8 49% 39 29.99 0.0
01 19:15 N 9 10.00 Overcast OVC060 42.8 24.8 49% 38 29.99 0.0
01 18:55 NW 9 10.00 Overcast OVC060 44.6 24.8 46% 40 29.98 0.0
01 18:35 NW 10 10.00 Overcast BKN060 OVC070 44.6 24.8 46% 40 29.98 0.0
01 18:15 NW 7 10.00 Overcast BKN060 OVC070 44.6 24.8 46% 41 29.98 0.0
01 17:56 NW 8 10.00 Overcast BKN060 OVC080 44.6 23 43% 41 29.97 0.0
01 17:35 NW 6 10.00 Overcast BKN060 OVC080 44.6 24.8 46% 42 29.97 0.0
01 17:15 N 6 10.00 Overcast OVC060 44.6 24.8 46% 42 29.97 0.0
01 16:55 N 10 10.00 Overcast FEW048 OVC060 46.4 24.8 43% 42 29.97 0.0
01 16:35 W 9 10.00 Overcast OVC060 44.6 24.8 46% 40 29.97 0.0
01 16:15 N 8 10.00 Overcast OVC050 44.6 24.8 46% 41 29.97 0.0
01 15:55 N 5 10.00 Overcast BKN048 OVC060 44.6 26.6 49% 43 29.97 0.0
01 15:36 NW 7 10.00 Overcast SCT050 BKN060 OVC070 44.6 26.6 49% 41 29.97 0.0
01 15:15 NW 7 10.00 Overcast SCT049 BKN055 OVC070 44.6 28.4 53% 41 29.97 0.0
01 14:55 Vrbl 7 10.00 Overcast FEW041 OVC049 44.6 28.4 53% 41 29.96 0.0
01 14:35 N 9 10.00 Overcast FEW041 BKN049 OVC060 44.6 28.4 53% 40 29.96 0.0
01 14:15 W 9 10.00 Overcast FEW041 OVC060 44.6 28.4 53% 40 29.96 0.0
01 13:55 Vrbl 3 10.00 Overcast SCT039 OVC050 44.6 28.4 45.7 35.6 53% 29.96 0.0
01 13:35 W 7 10.00 Overcast FEW037 BKN044 OVC050 44.6 30.2 57% 41 29.96 0.0
01 13:16 NW 3 10.00 Overcast BKN039 OVC050 42.8 28.4 57% 29.96 0.0
01 12:55 NW 7 10.00 Overcast BKN040 BKN050 OVC070 44.6 28.4 53% 41 29.97 0.0
01 12:35 W 9 10.00 Overcast SCT036 BKN070 OVC080 44.6 30.2 57% 40 29.97 0.0
01 12:15 N 8 10.00 Overcast SCT034 BKN065 OVC080 44.6 30.2 57% 41 29.97 0.0
01 11:55 N 7 10.00 Overcast FEW043 BKN070 OVC075 42.8 28.4 57% 39 29.97 0.0
01 11:35 NW 8 10.00 Mostly Cloudy SCT050 BKN070 BKN085 42.8 30.2 61% 39 29.97 0.0
01 11:15 N 8 10.00 Mostly Cloudy FEW042 FEW050 BKN080 42.8 30.2 61% 39 29.97 0.0
01 10:56 N 7 10.00 Mostly Cloudy BKN080 42.8 30.2 61% 39 29.97 0.0
01 10:35 N 8 10.00 Overcast OVC080 41 30.2 66% 36 29.97 0.0
Date Time (edt) Wind (mph) Vis. (mi.) Weather Sky Cond. Air Dwpt Max. Min. Relative Humidity Wind Chill (°F) Heat Index (°F) altimeter (in) sea level (mb) 1 hr 3 hr 6 hr
6 hour
Temperature (ºF) Pressure Precipitation (in)